sensor_id;sensor_type;location;lat;lon;timestamp;pressure;altitude;pressure_sealevel;temperature;humidity
10097;BME280;5087;42.662;23.466;2024-03-08T00:01:41;65339.31;;;-149.02;100.00
10097;BME280;5087;42.662;23.466;2024-03-08T00:04:12;65339.31;;;-149.02;100.00
10097;BME280;5087;42.662;23.466;2024-03-08T00:06:40;65339.31;;;-149.02;100.00
10097;BME280;5087;42.662;23.466;2024-03-08T00:09:09;65339.31;;;-149.02;100.00
10097;BME280;5087;42.662;23.466;2024-03-08T00:11:36;65339.31;;;-149.02;100.00
10097;BME280;5087;42.662;23.466;2024-03-08T00:14:04;65339.31;;;-149.02;100.00
10097;BME280;5087;42.662;23.466;2024-03-08T00:16:33;65339.31;;;-149.02;100.00
10097;BME280;5087;42.662;23.466;2024-03-08T00:19:04;65339.31;;;-149.02;100.00
10097;BME280;5087;42.662;23.466;2024-03-08T00:21:32;65339.31;;;-149.02;100.00
10097;BME280;5087;42.662;23.466;2024-03-08T00:23:59;65339.31;;;-149.02;100.00
10097;BME280;5087;42.662;23.466;2024-03-08T00:26:27;65339.31;;;-149.02;100.00
10097;BME280;5087;42.662;23.466;2024-03-08T00:28:54;65339.31;;;-149.02;100.00
10097;BME280;5087;42.662;23.466;2024-03-08T00:31:21;65339.31;;;-149.02;100.00
10097;BME280;5087;42.662;23.466;2024-03-08T00:33:48;65339.31;;;-149.02;100.00
10097;BME280;5087;42.662;23.466;2024-03-08T00:36:15;65339.31;;;-149.02;100.00
10097;BME280;5087;42.662;23.466;2024-03-08T00:38:43;65339.31;;;-149.02;100.00
10097;BME280;5087;42.662;23.466;2024-03-08T00:41:13;65339.31;;;-149.02;100.00
10097;BME280;5087;42.662;23.466;2024-03-08T00:43:40;65339.31;;;-149.02;100.00
10097;BME280;5087;42.662;23.466;2024-03-08T00:46:07;65339.31;;;-149.02;100.00
10097;BME280;5087;42.662;23.466;2024-03-08T00:48:34;65339.31;;;-149.02;100.00
10097;BME280;5087;42.662;23.466;2024-03-08T00:51:03;65339.31;;;-149.02;100.00
10097;BME280;5087;42.662;23.466;2024-03-08T00:53:30;65339.31;;;-149.02;100.00
10097;BME280;5087;42.662;23.466;2024-03-08T00:55:59;65339.31;;;-149.02;100.00
10097;BME280;5087;42.662;23.466;2024-03-08T00:58:26;65339.31;;;-149.02;100.00
10097;BME280;5087;42.662;23.466;2024-03-08T01:00:54;65339.31;;;-149.02;100.00
10097;BME280;5087;42.662;23.466;2024-03-08T01:03:22;65339.31;;;-149.02;100.00
10097;BME280;5087;42.662;23.466;2024-03-08T01:05:49;65339.31;;;-149.02;100.00
10097;BME280;5087;42.662;23.466;2024-03-08T01:08:17;65339.31;;;-149.02;100.00
10097;BME280;5087;42.662;23.466;2024-03-08T01:10:44;65339.31;;;-149.02;100.00
10097;BME280;5087;42.662;23.466;2024-03-08T01:13:13;65339.31;;;-149.02;100.00
10097;BME280;5087;42.662;23.466;2024-03-08T01:15:39;65339.31;;;-149.02;100.00
10097;BME280;5087;42.662;23.466;2024-03-08T01:18:07;65339.31;;;-149.02;100.00
10097;BME280;5087;42.662;23.466;2024-03-08T01:20:35;65339.31;;;-149.02;100.00
10097;BME280;5087;42.662;23.466;2024-03-08T01:23:02;65339.31;;;-149.02;100.00
10097;BME280;5087;42.662;23.466;2024-03-08T01:25:32;65339.31;;;-149.02;100.00
10097;BME280;5087;42.662;23.466;2024-03-08T01:27:59;65339.31;;;-149.02;100.00
10097;BME280;5087;42.662;23.466;2024-03-08T01:30:34;65339.31;;;-149.02;100.00
10097;BME280;5087;42.662;23.466;2024-03-08T01:33:03;65339.31;;;-149.02;100.00
10097;BME280;5087;42.662;23.466;2024-03-08T01:35:30;65339.31;;;-149.02;100.00
10097;BME280;5087;42.662;23.466;2024-03-08T01:37:57;65339.31;;;-149.02;100.00
10097;BME280;5087;42.662;23.466;2024-03-08T01:40:24;65339.31;;;-149.02;100.00
10097;BME280;5087;42.662;23.466;2024-03-08T01:42:51;65339.31;;;-149.02;100.00
10097;BME280;5087;42.662;23.466;2024-03-08T01:45:19;65339.31;;;-149.02;100.00
10097;BME280;5087;42.662;23.466;2024-03-08T01:47:47;65339.31;;;-149.02;100.00
10097;BME280;5087;42.662;23.466;2024-03-08T01:50:15;65339.31;;;-149.02;100.00
10097;BME280;5087;42.662;23.466;2024-03-08T01:52:42;65339.31;;;-149.02;100.00
10097;BME280;5087;42.662;23.466;2024-03-08T01:55:22;65339.31;;;-149.02;100.00
10097;BME280;5087;42.662;23.466;2024-03-08T01:57:49;65339.31;;;-149.02;100.00
10097;BME280;5087;42.662;23.466;2024-03-08T02:00:17;65339.31;;;-149.02;100.00
10097;BME280;5087;42.662;23.466;2024-03-08T02:02:45;65339.31;;;-149.02;100.00
10097;BME280;5087;42.662;23.466;2024-03-08T02:05:15;65339.31;;;-149.02;100.00
10097;BME280;5087;42.662;23.466;2024-03-08T02:07:42;65339.31;;;-149.02;100.00
10097;BME280;5087;42.662;23.466;2024-03-08T02:10:09;65339.31;;;-149.02;100.00
10097;BME280;5087;42.662;23.466;2024-03-08T02:12:38;65339.31;;;-149.02;100.00
10097;BME280;5087;42.662;23.466;2024-03-08T02:15:06;65339.31;;;-149.02;100.00
10097;BME280;5087;42.662;23.466;2024-03-08T02:17:33;65339.31;;;-149.02;100.00
10097;BME280;5087;42.662;23.466;2024-03-08T02:20:00;65339.31;;;-149.02;100.00
10097;BME280;5087;42.662;23.466;2024-03-08T02:22:31;65339.31;;;-149.02;100.00
10097;BME280;5087;42.662;23.466;2024-03-08T02:24:59;65339.31;;;-149.02;100.00
10097;BME280;5087;42.662;23.466;2024-03-08T02:27:27;65339.31;;;-149.02;100.00
10097;BME280;5087;42.662;23.466;2024-03-08T02:30:00;65339.31;;;-149.02;100.00
10097;BME280;5087;42.662;23.466;2024-03-08T02:32:27;65339.31;;;-149.02;100.00
10097;BME280;5087;42.662;23.466;2024-03-08T02:34:56;65339.31;;;-149.02;100.00
10097;BME280;5087;42.662;23.466;2024-03-08T02:37:25;65339.31;;;-149.02;100.00
10097;BME280;5087;42.662;23.466;2024-03-08T02:39:58;65339.31;;;-149.02;100.00
10097;BME280;5087;42.662;23.466;2024-03-08T02:42:25;65339.31;;;-149.02;100.00
10097;BME280;5087;42.662;23.466;2024-03-08T02:44:53;65339.31;;;-149.02;100.00
10097;BME280;5087;42.662;23.466;2024-03-08T02:47:19;65339.31;;;-149.02;100.00
10097;BME280;5087;42.662;23.466;2024-03-08T02:49:47;65339.31;;;-149.02;100.00
10097;BME280;5087;42.662;23.466;2024-03-08T02:52:15;65339.31;;;-149.02;100.00
10097;BME280;5087;42.662;23.466;2024-03-08T02:54:42;65339.31;;;-149.02;100.00
10097;BME280;5087;42.662;23.466;2024-03-08T02:57:12;65339.31;;;-149.02;100.00
10097;BME280;5087;42.662;23.466;2024-03-08T02:59:40;65339.31;;;-149.02;100.00
10097;BME280;5087;42.662;23.466;2024-03-08T03:02:07;65339.31;;;-149.02;100.00
10097;BME280;5087;42.662;23.466;2024-03-08T03:04:35;65339.31;;;-149.02;100.00
10097;BME280;5087;42.662;23.466;2024-03-08T03:07:02;65339.31;;;-149.02;100.00
10097;BME280;5087;42.662;23.466;2024-03-08T03:09:30;65339.31;;;-149.02;100.00
10097;BME280;5087;42.662;23.466;2024-03-08T03:11:58;65339.31;;;-149.02;100.00
10097;BME280;5087;42.662;23.466;2024-03-08T03:14:27;65339.31;;;-149.02;100.00
10097;BME280;5087;42.662;23.466;2024-03-08T03:16:54;65339.31;;;-149.02;100.00
10097;BME280;5087;42.662;23.466;2024-03-08T03:19:23;65339.31;;;-149.02;100.00
10097;BME280;5087;42.662;23.466;2024-03-08T03:21:50;65339.31;;;-149.02;100.00
10097;BME280;5087;42.662;23.466;2024-03-08T03:24:18;65339.31;;;-149.02;100.00
10097;BME280;5087;42.662;23.466;2024-03-08T03:26:49;65339.31;;;-149.02;100.00
10097;BME280;5087;42.662;23.466;2024-03-08T03:29:17;65339.31;;;-149.02;100.00
10097;BME280;5087;42.662;23.466;2024-03-08T03:31:47;65339.31;;;-149.02;100.00
10097;BME280;5087;42.662;23.466;2024-03-08T03:34:14;65339.31;;;-149.02;100.00
10097;BME280;5087;42.662;23.466;2024-03-08T03:36:41;65339.31;;;-149.02;100.00
10097;BME280;5087;42.662;23.466;2024-03-08T03:39:11;65339.31;;;-149.02;100.00
10097;BME280;5087;42.662;23.466;2024-03-08T03:41:38;65339.31;;;-149.02;100.00
10097;BME280;5087;42.662;23.466;2024-03-08T03:44:05;65339.31;;;-149.02;100.00
10097;BME280;5087;42.662;23.466;2024-03-08T03:46:32;65339.31;;;-149.02;100.00
10097;BME280;5087;42.662;23.466;2024-03-08T03:49:01;65339.31;;;-149.02;100.00
10097;BME280;5087;42.662;23.466;2024-03-08T03:51:29;65339.31;;;-149.02;100.00
10097;BME280;5087;42.662;23.466;2024-03-08T03:54:00;65339.31;;;-149.02;100.00
10097;BME280;5087;42.662;23.466;2024-03-08T03:56:29;65339.31;;;-149.02;100.00
10097;BME280;5087;42.662;23.466;2024-03-08T03:58:58;65339.31;;;-149.02;100.00
10097;BME280;5087;42.662;23.466;2024-03-08T04:01:25;65339.31;;;-149.02;100.00
10097;BME280;5087;42.662;23.466;2024-03-08T04:03:52;65339.31;;;-149.02;100.00
10097;BME280;5087;42.662;23.466;2024-03-08T04:06:21;65339.31;;;-149.02;100.00
10097;BME280;5087;42.662;23.466;2024-03-08T04:08:48;65339.31;;;-149.02;100.00
10097;BME280;5087;42.662;23.466;2024-03-08T04:11:15;65339.31;;;-149.02;100.00
10097;BME280;5087;42.662;23.466;2024-03-08T04:13:42;65339.31;;;-149.02;100.00
10097;BME280;5087;42.662;23.466;2024-03-08T04:16:09;65339.31;;;-149.02;100.00
10097;BME280;5087;42.662;23.466;2024-03-08T04:18:50;65339.31;;;-149.02;100.00
10097;BME280;5087;42.662;23.466;2024-03-08T04:21:18;65339.31;;;-149.02;100.00
10097;BME280;5087;42.662;23.466;2024-03-08T04:23:47;65339.31;;;-149.02;100.00
10097;BME280;5087;42.662;23.466;2024-03-08T04:26:14;65339.31;;;-149.02;100.00
10097;BME280;5087;42.662;23.466;2024-03-08T04:28:41;65339.31;;;-149.02;100.00
10097;BME280;5087;42.662;23.466;2024-03-08T04:31:08;65339.31;;;-149.02;100.00
10097;BME280;5087;42.662;23.466;2024-03-08T04:33:36;65339.31;;;-149.02;100.00
10097;BME280;5087;42.662;23.466;2024-03-08T04:36:05;65339.31;;;-149.02;100.00
10097;BME280;5087;42.662;23.466;2024-03-08T04:38:33;65339.31;;;-149.02;100.00
10097;BME280;5087;42.662;23.466;2024-03-08T04:41:01;65339.31;;;-149.02;100.00
10097;BME280;5087;42.662;23.466;2024-03-08T04:43:29;65339.31;;;-149.02;100.00
10097;BME280;5087;42.662;23.466;2024-03-08T04:45:56;65339.31;;;-149.02;100.00
10097;BME280;5087;42.662;23.466;2024-03-08T04:48:24;65339.31;;;-149.02;100.00
10097;BME280;5087;42.662;23.466;2024-03-08T04:50:52;65339.31;;;-149.02;100.00
10097;BME280;5087;42.662;23.466;2024-03-08T04:53:19;65339.31;;;-149.02;100.00
10097;BME280;5087;42.662;23.466;2024-03-08T04:55:46;65339.31;;;-149.02;100.00
10097;BME280;5087;42.662;23.466;2024-03-08T04:58:15;65339.31;;;-149.02;100.00
10097;BME280;5087;42.662;23.466;2024-03-08T05:00:42;65339.31;;;-149.02;100.00
10097;BME280;5087;42.662;23.466;2024-03-08T05:03:09;65339.31;;;-149.02;100.00
10097;BME280;5087;42.662;23.466;2024-03-08T05:05:37;65339.31;;;-149.02;100.00
10097;BME280;5087;42.662;23.466;2024-03-08T05:08:05;65339.31;;;-149.02;100.00
10097;BME280;5087;42.662;23.466;2024-03-08T05:10:32;65339.31;;;-149.02;100.00
10097;BME280;5087;42.662;23.466;2024-03-08T05:12:59;65339.31;;;-149.02;100.00
10097;BME280;5087;42.662;23.466;2024-03-08T05:15:28;65339.31;;;-149.02;100.00
10097;BME280;5087;42.662;23.466;2024-03-08T05:17:54;65339.31;;;-149.02;100.00
10097;BME280;5087;42.662;23.466;2024-03-08T05:20:26;65339.31;;;-149.02;100.00
10097;BME280;5087;42.662;23.466;2024-03-08T05:22:53;65339.31;;;-149.02;100.00
10097;BME280;5087;42.662;23.466;2024-03-08T05:25:20;65339.31;;;-149.02;100.00
10097;BME280;5087;42.662;23.466;2024-03-08T05:27:48;65339.31;;;-149.02;100.00
10097;BME280;5087;42.662;23.466;2024-03-08T05:30:15;65339.31;;;-149.02;100.00
10097;BME280;5087;42.662;23.466;2024-03-08T05:32:43;65339.31;;;-149.02;100.00
10097;BME280;5087;42.662;23.466;2024-03-08T05:35:11;65339.31;;;-149.02;100.00
10097;BME280;5087;42.662;23.466;2024-03-08T05:37:38;65339.31;;;-149.02;100.00
10097;BME280;5087;42.662;23.466;2024-03-08T05:40:06;65339.31;;;-149.02;100.00
10097;BME280;5087;42.662;23.466;2024-03-08T05:42:35;65339.31;;;-149.02;100.00
10097;BME280;5087;42.662;23.466;2024-03-08T05:45:03;65339.31;;;-149.02;100.00
10097;BME280;5087;42.662;23.466;2024-03-08T05:47:31;65339.31;;;-149.02;100.00
10097;BME280;5087;42.662;23.466;2024-03-08T05:50:01;65339.31;;;-149.02;100.00
10097;BME280;5087;42.662;23.466;2024-03-08T05:52:29;65339.31;;;-149.02;100.00
10097;BME280;5087;42.662;23.466;2024-03-08T05:54:59;65339.31;;;-149.02;100.00
10097;BME280;5087;42.662;23.466;2024-03-08T05:57:26;65339.31;;;-149.02;100.00
10097;BME280;5087;42.662;23.466;2024-03-08T05:59:53;65339.31;;;-149.02;100.00
10097;BME280;5087;42.662;23.466;2024-03-08T06:02:20;65339.31;;;-149.02;100.00
10097;BME280;5087;42.662;23.466;2024-03-08T06:04:47;65339.31;;;-149.02;100.00
10097;BME280;5087;42.662;23.466;2024-03-08T06:07:16;65339.31;;;-149.02;100.00
10097;BME280;5087;42.662;23.466;2024-03-08T06:09:45;65339.31;;;-149.02;100.00
10097;BME280;5087;42.662;23.466;2024-03-08T06:12:13;65339.31;;;-149.02;100.00
10097;BME280;5087;42.662;23.466;2024-03-08T06:14:48;65339.31;;;-149.02;100.00
10097;BME280;5087;42.662;23.466;2024-03-08T06:17:15;65339.31;;;-149.02;100.00
10097;BME280;5087;42.662;23.466;2024-03-08T06:19:43;65339.31;;;-149.02;100.00
10097;BME280;5087;42.662;23.466;2024-03-08T06:22:12;65339.31;;;-149.02;100.00
10097;BME280;5087;42.662;23.466;2024-03-08T06:24:41;65339.31;;;-149.02;100.00
10097;BME280;5087;42.662;23.466;2024-03-08T06:27:08;65339.31;;;-149.02;100.00
10097;BME280;5087;42.662;23.466;2024-03-08T06:29:35;65339.31;;;-149.02;100.00
10097;BME280;5087;42.662;23.466;2024-03-08T06:32:02;65339.31;;;-149.02;100.00
10097;BME280;5087;42.662;23.466;2024-03-08T06:34:29;65339.31;;;-149.02;100.00
10097;BME280;5087;42.662;23.466;2024-03-08T06:36:56;65339.31;;;-149.02;100.00
10097;BME280;5087;42.662;23.466;2024-03-08T06:39:26;65339.31;;;-149.02;100.00
10097;BME280;5087;42.662;23.466;2024-03-08T06:42:00;65339.31;;;-149.02;100.00
10097;BME280;5087;42.662;23.466;2024-03-08T06:44:27;65339.31;;;-149.02;100.00
10097;BME280;5087;42.662;23.466;2024-03-08T06:46:54;65339.31;;;-149.02;100.00
10097;BME280;5087;42.662;23.466;2024-03-08T06:49:24;65339.31;;;-149.02;100.00
10097;BME280;5087;42.662;23.466;2024-03-08T06:51:52;65339.31;;;-149.02;100.00
10097;BME280;5087;42.662;23.466;2024-03-08T06:54:19;65339.31;;;-149.02;100.00
10097;BME280;5087;42.662;23.466;2024-03-08T06:56:47;65339.31;;;-149.02;100.00
10097;BME280;5087;42.662;23.466;2024-03-08T06:59:15;65339.31;;;-149.02;100.00
10097;BME280;5087;42.662;23.466;2024-03-08T07:01:43;65339.31;;;-149.02;100.00
10097;BME280;5087;42.662;23.466;2024-03-08T07:04:11;65339.31;;;-149.02;100.00
10097;BME280;5087;42.662;23.466;2024-03-08T07:06:38;65339.31;;;-149.02;100.00
10097;BME280;5087;42.662;23.466;2024-03-08T07:09:06;65339.31;;;-149.02;100.00
10097;BME280;5087;42.662;23.466;2024-03-08T07:11:33;65339.31;;;-149.02;100.00
10097;BME280;5087;42.662;23.466;2024-03-08T07:14:00;65339.31;;;-149.02;100.00
10097;BME280;5087;42.662;23.466;2024-03-08T07:16:33;65339.31;;;-149.02;100.00
10097;BME280;5087;42.662;23.466;2024-03-08T07:19:01;65339.31;;;-149.02;100.00
10097;BME280;5087;42.662;23.466;2024-03-08T07:21:29;65339.31;;;-149.02;100.00
10097;BME280;5087;42.662;23.466;2024-03-08T07:23:56;65339.31;;;-149.02;100.00
10097;BME280;5087;42.662;23.466;2024-03-08T07:26:39;65339.31;;;-149.02;100.00
10097;BME280;5087;42.662;23.466;2024-03-08T07:29:06;65339.31;;;-149.02;100.00
10097;BME280;5087;42.662;23.466;2024-03-08T07:31:35;65339.31;;;-149.02;100.00
10097;BME280;5087;42.662;23.466;2024-03-08T07:34:16;65339.31;;;-149.02;100.00
10097;BME280;5087;42.662;23.466;2024-03-08T07:36:43;65339.31;;;-149.02;100.00
10097;BME280;5087;42.662;23.466;2024-03-08T07:39:10;65339.31;;;-149.02;100.00
10097;BME280;5087;42.662;23.466;2024-03-08T07:41:39;65339.31;;;-149.02;100.00
10097;BME280;5087;42.662;23.466;2024-03-08T07:44:06;65339.31;;;-149.02;100.00
10097;BME280;5087;42.662;23.466;2024-03-08T07:46:35;65339.31;;;-149.02;100.00
10097;BME280;5087;42.662;23.466;2024-03-08T08:16:41;95616.38;;;6.04;100.00
10097;BME280;5087;42.662;23.466;2024-03-08T08:19:14;95615.25;;;6.10;100.00
10097;BME280;5087;42.662;23.466;2024-03-08T08:21:41;95612.84;;;6.04;100.00
10097;BME280;5087;42.662;23.466;2024-03-08T08:24:08;95609.59;;;5.12;100.00
10097;BME280;5087;42.662;23.466;2024-03-08T08:26:36;95623.50;;;5.39;100.00
10097;BME280;5087;42.662;23.466;2024-03-08T08:29:03;95608.03;;;5.95;100.00
10097;BME280;5087;42.662;23.466;2024-03-08T08:31:32;65339.31;;;-149.02;100.00
10097;BME280;5087;42.662;23.466;2024-03-08T08:34:00;65339.31;;;-149.02;100.00
10097;BME280;5087;42.662;23.466;2024-03-08T08:36:28;65339.31;;;-149.02;100.00
10097;BME280;5087;42.662;23.466;2024-03-08T08:38:57;65339.31;;;-149.02;100.00
10097;BME280;5087;42.662;23.466;2024-03-08T08:41:35;65339.31;;;-149.02;100.00
10097;BME280;5087;42.662;23.466;2024-03-08T08:44:02;65339.31;;;-149.02;100.00
10097;BME280;5087;42.662;23.466;2024-03-08T08:46:29;65339.31;;;-149.02;100.00
10097;BME280;5087;42.662;23.466;2024-03-08T08:49:18;65339.31;;;-149.02;100.00
10097;BME280;5087;42.662;23.466;2024-03-08T08:51:48;65339.31;;;-149.02;100.00
10097;BME280;5087;42.662;23.466;2024-03-08T08:54:16;65339.31;;;-149.02;100.00
10097;BME280;5087;42.662;23.466;2024-03-08T08:56:46;65339.31;;;-149.02;100.00
10097;BME280;5087;42.662;23.466;2024-03-08T08:59:14;65339.31;;;-149.02;100.00
10097;BME280;5087;42.662;23.466;2024-03-08T09:01:42;65339.31;;;-149.02;100.00
10097;BME280;5087;42.662;23.466;2024-03-08T09:04:09;65339.31;;;-149.02;100.00
10097;BME280;5087;42.662;23.466;2024-03-08T09:06:42;65339.31;;;-149.02;100.00
10097;BME280;5087;42.662;23.466;2024-03-08T09:09:10;65339.31;;;-149.02;100.00
10097;BME280;5087;42.662;23.466;2024-03-08T09:11:39;65339.31;;;-149.02;100.00
10097;BME280;5087;42.662;23.466;2024-03-08T09:14:09;65339.31;;;-149.02;100.00
10097;BME280;5087;42.662;23.466;2024-03-08T09:16:38;65339.31;;;-149.02;100.00
10097;BME280;5087;42.662;23.466;2024-03-08T09:19:05;65339.31;;;-149.02;100.00
10097;BME280;5087;42.662;23.466;2024-03-08T09:21:32;65339.31;;;-149.02;100.00
10097;BME280;5087;42.662;23.466;2024-03-08T09:24:05;65339.31;;;-149.02;100.00
10097;BME280;5087;42.662;23.466;2024-03-08T09:26:33;65339.31;;;-149.02;100.00
10097;BME280;5087;42.662;23.466;2024-03-08T09:29:03;65339.31;;;-149.02;100.00
10097;BME280;5087;42.662;23.466;2024-03-08T09:31:49;65339.31;;;-149.02;100.00
10097;BME280;5087;42.662;23.466;2024-03-08T09:34:17;65339.31;;;-149.02;100.00
10097;BME280;5087;42.662;23.466;2024-03-08T09:36:44;65339.31;;;-149.02;100.00
10097;BME280;5087;42.662;23.466;2024-03-08T09:39:33;65339.31;;;-149.02;100.00
10097;BME280;5087;42.662;23.466;2024-03-08T09:42:00;65339.31;;;-149.02;100.00
10097;BME280;5087;42.662;23.466;2024-03-08T09:44:27;65339.31;;;-149.02;100.00
10097;BME280;5087;42.662;23.466;2024-03-08T09:47:09;65339.31;;;-149.02;100.00
10097;BME280;5087;42.662;23.466;2024-03-08T09:49:39;65339.31;;;-149.02;100.00
10097;BME280;5087;42.662;23.466;2024-03-08T09:52:07;65339.31;;;-149.02;100.00
10097;BME280;5087;42.662;23.466;2024-03-08T09:54:40;65339.31;;;-149.02;100.00
10097;BME280;5087;42.662;23.466;2024-03-08T10:14:30;95587.56;;;8.21;100.00
10097;BME280;5087;42.662;23.466;2024-03-08T10:17:03;65339.31;;;-149.02;100.00
10097;BME280;5087;42.662;23.466;2024-03-08T10:19:33;65339.31;;;-149.02;100.00
10097;BME280;5087;42.662;23.466;2024-03-08T10:22:00;65339.31;;;-149.02;100.00
10097;BME280;5087;42.662;23.466;2024-03-08T10:24:30;65339.31;;;-149.02;100.00
10097;BME280;5087;42.662;23.466;2024-03-08T10:27:01;65339.31;;;-149.02;100.00
10097;BME280;5087;42.662;23.466;2024-03-08T10:29:32;65339.31;;;-149.02;100.00
10097;BME280;5087;42.662;23.466;2024-03-08T10:31:59;65339.31;;;-149.02;100.00
10097;BME280;5087;42.662;23.466;2024-03-08T10:34:31;65339.31;;;-149.02;100.00
10097;BME280;5087;42.662;23.466;2024-03-08T10:37:02;65339.31;;;-149.02;100.00
10097;BME280;5087;42.662;23.466;2024-03-08T10:39:36;65339.31;;;-149.02;100.00
10097;BME280;5087;42.662;23.466;2024-03-08T10:42:04;65339.31;;;-149.02;100.00
10097;BME280;5087;42.662;23.466;2024-03-08T10:44:51;65339.31;;;-149.02;100.00
10097;BME280;5087;42.662;23.466;2024-03-08T10:47:26;65339.31;;;-149.02;100.00
10097;BME280;5087;42.662;23.466;2024-03-08T10:50:05;65339.31;;;-149.02;100.00
10097;BME280;5087;42.662;23.466;2024-03-08T10:52:41;65339.31;;;-149.02;100.00
10097;BME280;5087;42.662;23.466;2024-03-08T10:55:12;65339.31;;;-149.02;100.00
10097;BME280;5087;42.662;23.466;2024-03-08T10:57:41;65339.31;;;-149.02;100.00
10097;BME280;5087;42.662;23.466;2024-03-08T11:00:12;65339.31;;;-149.02;100.00
10097;BME280;5087;42.662;23.466;2024-03-08T11:02:43;65339.31;;;-149.02;100.00
10097;BME280;5087;42.662;23.466;2024-03-08T11:05:21;65339.31;;;-149.02;100.00
10097;BME280;5087;42.662;23.466;2024-03-08T11:08:01;65339.31;;;-149.02;100.00
10097;BME280;5087;42.662;23.466;2024-03-08T11:10:29;65339.31;;;-149.02;100.00
10097;BME280;5087;42.662;23.466;2024-03-08T11:12:56;65339.31;;;-149.02;100.00
10097;BME280;5087;42.662;23.466;2024-03-08T11:15:49;65339.31;;;-149.02;100.00
10097;BME280;5087;42.662;23.466;2024-03-08T11:18:18;65339.31;;;-149.02;100.00
10097;BME280;5087;42.662;23.466;2024-03-08T11:20:47;65339.31;;;-149.02;100.00
10097;BME280;5087;42.662;23.466;2024-03-08T11:23:22;65339.31;;;-149.02;100.00
10097;BME280;5087;42.662;23.466;2024-03-08T11:25:51;65339.31;;;-149.02;100.00
10097;BME280;5087;42.662;23.466;2024-03-08T11:28:20;65339.31;;;-149.02;100.00
10097;BME280;5087;42.662;23.466;2024-03-08T11:31:25;65339.31;;;-149.02;100.00
10097;BME280;5087;42.662;23.466;2024-03-08T11:33:53;65339.31;;;-149.02;100.00
10097;BME280;5087;42.662;23.466;2024-03-08T11:36:22;65339.31;;;-149.02;100.00
10097;BME280;5087;42.662;23.466;2024-03-08T11:38:50;65339.31;;;-149.02;100.00
10097;BME280;5087;42.662;23.466;2024-03-08T11:41:19;65339.31;;;-149.02;100.00
10097;BME280;5087;42.662;23.466;2024-03-08T11:43:47;65339.31;;;-149.02;100.00
10097;BME280;5087;42.662;23.466;2024-03-08T11:46:16;65339.31;;;-149.02;100.00
10097;BME280;5087;42.662;23.466;2024-03-08T11:48:46;65339.31;;;-149.02;100.00
10097;BME280;5087;42.662;23.466;2024-03-08T11:51:14;65339.31;;;-149.02;100.00
10097;BME280;5087;42.662;23.466;2024-03-08T11:53:44;65339.31;;;-149.02;100.00
10097;BME280;5087;42.662;23.466;2024-03-08T11:56:12;65339.31;;;-149.02;100.00
10097;BME280;5087;42.662;23.466;2024-03-08T11:58:53;65339.31;;;-149.02;100.00
10097;BME280;5087;42.662;23.466;2024-03-08T12:01:25;65339.31;;;-149.02;100.00
10097;BME280;5087;42.662;23.466;2024-03-08T12:03:53;65339.31;;;-149.02;100.00
10097;BME280;5087;42.662;23.466;2024-03-08T12:06:24;65339.31;;;-149.02;100.00
10097;BME280;5087;42.662;23.466;2024-03-08T12:08:52;65339.31;;;-149.02;100.00
10097;BME280;5087;42.662;23.466;2024-03-08T12:11:20;65339.31;;;-149.02;100.00
10097;BME280;5087;42.662;23.466;2024-03-08T12:13:49;65339.31;;;-149.02;100.00
10097;BME280;5087;42.662;23.466;2024-03-08T12:16:20;65339.31;;;-149.02;100.00
10097;BME280;5087;42.662;23.466;2024-03-08T12:18:51;65339.31;;;-149.02;100.00
10097;BME280;5087;42.662;23.466;2024-03-08T12:21:19;65339.31;;;-149.02;100.00
10097;BME280;5087;42.662;23.466;2024-03-08T12:23:48;65339.31;;;-149.02;100.00
10097;BME280;5087;42.662;23.466;2024-03-08T12:26:28;65339.31;;;-149.02;100.00
10097;BME280;5087;42.662;23.466;2024-03-08T12:29:19;65339.31;;;-149.02;100.00
10097;BME280;5087;42.662;23.466;2024-03-08T12:31:50;65339.31;;;-149.02;100.00
10097;BME280;5087;42.662;23.466;2024-03-08T12:34:20;65339.31;;;-149.02;100.00
10097;BME280;5087;42.662;23.466;2024-03-08T12:36:48;65339.31;;;-149.02;100.00
10097;BME280;5087;42.662;23.466;2024-03-08T12:39:16;65339.31;;;-149.02;100.00
10097;BME280;5087;42.662;23.466;2024-03-08T12:41:50;65339.31;;;-149.02;100.00
10097;BME280;5087;42.662;23.466;2024-03-08T12:44:20;65339.31;;;-149.02;100.00
10097;BME280;5087;42.662;23.466;2024-03-08T12:46:48;65339.31;;;-149.02;100.00
10097;BME280;5087;42.662;23.466;2024-03-08T12:49:17;65339.31;;;-149.02;100.00
10097;BME280;5087;42.662;23.466;2024-03-08T12:51:46;65339.31;;;-149.02;100.00
10097;BME280;5087;42.662;23.466;2024-03-08T12:54:13;65339.31;;;-149.02;100.00
10097;BME280;5087;42.662;23.466;2024-03-08T12:56:45;65339.31;;;-149.02;100.00
10097;BME280;5087;42.662;23.466;2024-03-08T12:59:13;65339.31;;;-149.02;100.00
10097;BME280;5087;42.662;23.466;2024-03-08T13:01:42;65339.31;;;-149.02;100.00
10097;BME280;5087;42.662;23.466;2024-03-08T13:04:12;65339.31;;;-149.02;100.00
10097;BME280;5087;42.662;23.466;2024-03-08T13:06:45;65339.31;;;-149.02;100.00
10097;BME280;5087;42.662;23.466;2024-03-08T13:09:44;65339.31;;;-149.02;100.00
10097;BME280;5087;42.662;23.466;2024-03-08T13:12:12;65339.31;;;-149.02;100.00
10097;BME280;5087;42.662;23.466;2024-03-08T13:14:43;65339.31;;;-149.02;100.00
10097;BME280;5087;42.662;23.466;2024-03-08T13:17:10;65339.31;;;-149.02;100.00
10097;BME280;5087;42.662;23.466;2024-03-08T13:19:38;65339.31;;;-149.02;100.00
10097;BME280;5087;42.662;23.466;2024-03-08T13:22:07;65339.31;;;-149.02;100.00
10097;BME280;5087;42.662;23.466;2024-03-08T13:24:37;65339.31;;;-149.02;100.00
10097;BME280;5087;42.662;23.466;2024-03-08T13:27:06;65339.31;;;-149.02;100.00